createdAt,value
2023-01-08T00:00:57.339Z,75.60
2023-01-08T00:04:21.933Z,75.50
2023-01-08T00:07:45.697Z,76.20
2023-01-08T00:11:10.084Z,76.30
2023-01-08T00:14:34.087Z,76.50
2023-01-08T00:17:59.387Z,76.50
2023-01-08T00:21:24.718Z,76.20
2023-01-08T00:24:49.070Z,76.40
2023-01-08T00:28:14.934Z,76.20
2023-01-08T00:31:42.278Z,75.80
2023-01-08T00:35:08.234Z,75.80
2023-01-08T00:38:31.779Z,75.80
2023-01-08T00:41:56.089Z,75.90
2023-01-08T00:45:24.742Z,76.20
2023-01-08T00:48:49.133Z,76.20
2023-01-08T00:52:14.983Z,76.50
2023-01-08T00:55:47.666Z,76.60
2023-01-08T00:59:12.098Z,76.80
2023-01-08T01:02:36.383Z,77.00
2023-01-08T01:06:03.245Z,76.90
2023-01-08T01:09:28.554Z,76.80
2023-01-08T01:12:53.091Z,77.10
2023-01-08T01:16:17.831Z,77.20
2023-01-08T01:19:42.242Z,77.20
2023-01-08T01:23:06.093Z,77.20
2023-01-08T01:26:32.280Z,77.30
2023-01-08T01:29:56.094Z,77.40
2023-01-08T01:33:23.122Z,78.00
2023-01-08T01:36:47.132Z,78.60
2023-01-08T01:40:12.026Z,79.10
2023-01-08T01:43:42.335Z,79.10
2023-01-08T01:47:12.140Z,79.00
2023-01-08T01:50:41.030Z,78.80
2023-01-08T01:54:09.076Z,79.60
2023-01-08T01:57:34.622Z,78.80
2023-01-08T02:01:07.551Z,78.60
2023-01-08T02:04:33.213Z,78.60
2023-01-08T02:08:04.353Z,78.80
2023-01-08T02:11:38.995Z,78.70
2023-01-08T02:15:11.425Z,78.90
2023-01-08T02:18:46.056Z,79.20
2023-01-08T02:22:23.059Z,79.00
2023-01-08T02:26:13.953Z,79.00
2023-01-08T02:29:38.215Z,79.00
2023-01-08T02:33:02.236Z,79.20
2023-01-08T02:36:35.366Z,79.20
2023-01-08T02:40:21.140Z,79.30
2023-01-08T02:43:49.147Z,79.50
2023-01-08T02:47:18.925Z,79.40
2023-01-08T02:50:47.807Z,79.40
2023-01-08T02:54:15.787Z,79.80
2023-01-08T02:57:39.928Z,79.70
2023-01-08T03:01:08.246Z,79.80
2023-01-08T03:04:38.948Z,79.80
2023-01-08T03:08:03.272Z,80.10
2023-01-08T03:11:34.899Z,80.20
2023-01-08T03:15:02.915Z,80.10
2023-01-08T03:18:34.064Z,80.30
2023-01-08T03:21:59.003Z,80.50
2023-01-08T03:25:26.006Z,80.40
2023-01-08T03:28:53.767Z,80.60
2023-01-08T03:32:20.998Z,80.40
2023-01-08T03:35:51.161Z,80.50
2023-01-08T03:39:18.412Z,80.50
2023-01-08T03:42:42.404Z,80.60
2023-01-08T03:46:10.263Z,80.40
2023-01-08T03:49:36.431Z,80.30
2023-01-08T03:53:01.388Z,80.30
2023-01-08T03:56:25.846Z,80.60
2023-01-08T03:59:52.518Z,80.50
2023-01-08T04:03:16.293Z,80.90
2023-01-08T04:06:40.749Z,81.20
2023-01-08T04:10:06.480Z,81.30
2023-01-08T04:13:30.274Z,82.40
2023-01-08T04:16:53.783Z,81.80
2023-01-08T04:20:18.383Z,82.10
2023-01-08T04:23:42.339Z,83.00
2023-01-08T04:27:07.865Z,82.30
2023-01-08T04:30:32.379Z,82.10
2023-01-08T04:33:56.289Z,82.20
2023-01-08T04:37:20.353Z,82.10
2023-01-08T04:40:44.586Z,82.00
2023-01-08T04:44:10.154Z,81.90
2023-01-08T04:47:33.848Z,81.80
2023-01-08T04:51:00.072Z,81.90
2023-01-08T04:54:23.600Z,81.80
2023-01-08T04:57:47.356Z,81.80
2023-01-08T05:01:17.196Z,81.80
2023-01-08T05:04:40.775Z,81.60
2023-01-08T05:08:06.903Z,81.80
2023-01-08T05:11:31.417Z,81.50
2023-01-08T05:14:55.353Z,81.40
2023-01-08T05:18:20.705Z,81.50
2023-01-08T05:21:44.441Z,81.80
2023-01-08T05:25:09.313Z,82.00
2023-01-08T05:28:34.317Z,82.10
2023-01-08T05:32:00.257Z,82.40
2023-01-08T05:35:25.811Z,82.50
2023-01-08T05:38:49.461Z,82.50
2023-01-08T05:42:13.401Z,82.60
2023-01-08T05:45:37.526Z,82.90
2023-01-08T05:49:03.559Z,83.10
2023-01-08T05:52:29.132Z,83.60
2023-01-08T05:55:53.445Z,84.30
2023-01-08T05:59:17.509Z,84.80
2023-01-08T06:02:41.716Z,86.80
2023-01-08T06:06:07.472Z,87.20
2023-01-08T06:09:32.413Z,87.70
2023-01-08T06:12:58.875Z,88.10
2023-01-08T06:16:22.615Z,88.30
2023-01-08T06:19:48.194Z,88.40
2023-01-08T06:23:11.855Z,88.50
2023-01-08T06:26:36.841Z,88.90
2023-01-08T06:30:00.496Z,89.30
2023-01-08T06:33:26.827Z,89.30
2023-01-08T06:36:51.234Z,89.50
2023-01-08T06:40:15.628Z,89.50
2023-01-08T06:43:43.351Z,89.50
2023-01-08T06:47:07.597Z,89.80
2023-01-08T06:50:31.880Z,89.40
2023-01-08T06:53:56.476Z,89.40
2023-01-08T06:57:20.635Z,89.50
2023-01-08T07:00:46.280Z,89.30
2023-01-08T07:04:10.445Z,89.30
2023-01-08T07:07:42.277Z,89.30
2023-01-08T07:11:06.636Z,88.80
2023-01-08T07:14:30.528Z,89.00
2023-01-08T07:17:58.129Z,88.70
2023-01-08T07:21:22.551Z,88.30
2023-01-08T07:24:46.555Z,88.30
2023-01-08T07:28:13.650Z,88.20
2023-01-08T07:31:37.331Z,87.70
2023-01-08T07:35:02.309Z,87.50
2023-01-08T07:38:26.040Z,87.10
2023-01-08T07:41:49.576Z,86.60
2023-01-08T07:45:13.902Z,86.10
2023-01-08T07:48:37.409Z,86.40
2023-01-08T07:52:02.423Z,86.10
2023-01-08T07:55:26.084Z,85.90
2023-01-08T07:58:49.700Z,86.10
2023-01-08T08:02:13.801Z,85.90
2023-01-08T08:05:37.532Z,85.60
2023-01-08T08:09:03.647Z,85.70
2023-01-08T08:12:27.163Z,85.90
2023-01-08T08:15:51.531Z,86.00
2023-01-08T08:19:15.950Z,86.00
2023-01-08T08:22:39.521Z,86.30
2023-01-08T08:26:05.986Z,85.90
2023-01-08T08:29:29.635Z,85.90
2023-01-08T08:32:53.280Z,86.80
2023-01-08T08:36:16.921Z,85.80
2023-01-08T08:39:40.565Z,85.40
2023-01-08T08:43:05.864Z,85.10
2023-01-08T08:46:30.370Z,85.00
2023-01-08T08:49:53.896Z,84.80
2023-01-08T08:53:17.474Z,84.40
2023-01-08T08:56:41.122Z,84.20
2023-01-08T09:00:07.375Z,84.40
2023-01-08T09:03:32.975Z,84.40
2023-01-08T09:06:56.537Z,83.50
2023-01-08T09:10:20.060Z,84.80
2023-01-08T09:13:43.608Z,84.60
2023-01-08T09:17:08.660Z,86.50
2023-01-08T09:20:32.456Z,86.70
2023-01-08T09:23:55.997Z,87.10
2023-01-08T09:27:19.470Z,86.50
2023-01-08T09:30:42.961Z,86.50
2023-01-08T09:34:07.932Z,86.30
2023-01-08T09:37:31.683Z,86.30
2023-01-08T09:41:00.831Z,85.30
2023-01-08T09:44:27.942Z,85.00
2023-01-08T09:47:51.738Z,84.80
2023-01-08T09:51:19.231Z,84.40
2023-01-08T09:54:43.137Z,84.30
2023-01-08T09:58:12.991Z,83.90
2023-01-08T10:01:41.058Z,83.00
2023-01-08T10:05:13.881Z,82.90
2023-01-08T10:08:39.260Z,81.20
2023-01-08T10:12:06.009Z,80.80
2023-01-08T10:15:31.224Z,81.40
2023-01-08T10:18:54.786Z,81.30
2023-01-08T10:22:21.630Z,80.80
2023-01-08T10:25:54.197Z,80.00
2023-01-08T10:29:20.147Z,76.00
2023-01-08T10:32:49.199Z,71.60
2023-01-08T10:36:15.746Z,66.20
2023-01-08T10:39:39.507Z,64.40
2023-01-08T10:43:12.427Z,61.40
2023-01-08T10:46:42.241Z,59.50
2023-01-08T10:50:17.204Z,62.10
2023-01-08T10:53:41.548Z,64.00
2023-01-08T10:57:20.030Z,66.10
2023-01-08T11:00:47.425Z,63.10
2023-01-08T11:04:24.152Z,62.90
2023-01-08T11:07:55.929Z,61.30
2023-01-08T11:11:20.116Z,63.10
2023-01-08T11:14:47.568Z,64.70
2023-01-08T11:18:20.483Z,65.00
2023-01-08T11:21:55.223Z,66.60
2023-01-08T11:25:26.806Z,68.00
2023-01-08T11:28:57.094Z,69.00
2023-01-08T11:32:31.230Z,70.10
2023-01-08T11:36:02.944Z,70.40
2023-01-08T11:39:27.286Z,69.70
2023-01-08T11:43:09.353Z,70.80
2023-01-08T11:46:40.195Z,70.60
2023-01-08T11:50:14.148Z,70.70
2023-01-08T11:53:44.633Z,70.20
2023-01-08T11:57:18.591Z,69.90
2023-01-08T12:00:58.014Z,69.20
2023-01-08T12:04:35.188Z,69.90
2023-01-08T12:08:05.491Z,69.10
2023-01-08T12:11:33.820Z,68.80
2023-01-08T12:15:08.465Z,68.00
2023-01-08T12:18:56.635Z,68.10
2023-01-08T12:22:32.632Z,67.70
2023-01-08T12:26:11.146Z,68.60
2023-01-08T12:30:01.471Z,68.70
2023-01-08T12:33:44.934Z,69.00
2023-01-08T12:37:15.900Z,69.50
2023-01-08T12:40:43.442Z,70.10
2023-01-08T12:44:14.272Z,70.20
2023-01-08T12:47:41.095Z,70.60
2023-01-08T12:51:10.863Z,70.10
2023-01-08T12:54:40.562Z,70.20
2023-01-08T12:58:15.754Z,70.50
2023-01-08T13:01:46.746Z,70.90
2023-01-08T13:05:30.835Z,71.50
2023-01-08T13:08:57.083Z,70.60
2023-01-08T13:12:31.558Z,70.00
2023-01-08T13:16:06.068Z,70.40
2023-01-08T13:19:34.687Z,71.00
2023-01-08T13:23:06.392Z,71.10
2023-01-08T13:26:31.725Z,70.60
2023-01-08T13:29:57.802Z,70.40
2023-01-08T13:33:27.751Z,70.10
2023-01-08T13:36:58.608Z,70.10
2023-01-08T13:40:42.845Z,71.30
2023-01-08T13:44:15.380Z,71.30
2023-01-08T13:47:44.374Z,71.20
2023-01-08T13:51:25.972Z,70.70
2023-01-08T13:54:49.890Z,70.60
2023-01-08T13:58:18.850Z,71.50
2023-01-08T14:01:53.405Z,71.20
2023-01-08T14:05:30.358Z,71.60
2023-01-08T14:08:58.455Z,72.10
2023-01-08T14:12:23.816Z,72.00
2023-01-08T14:15:49.241Z,71.80
2023-01-08T14:19:16.769Z,72.00
2023-01-08T14:22:43.001Z,72.70
2023-01-08T14:26:10.367Z,73.00
2023-01-08T14:29:36.506Z,73.20
2023-01-08T14:33:02.520Z,73.40
2023-01-08T14:36:27.042Z,73.60
2023-01-08T14:39:54.332Z,73.70
2023-01-08T14:43:20.705Z,73.70
2023-01-08T14:46:46.303Z,73.70
2023-01-08T14:50:21.236Z,73.70
2023-01-08T14:53:46.641Z,74.00
2023-01-08T14:57:13.559Z,73.10
2023-01-08T15:00:39.142Z,72.20
2023-01-08T15:04:07.694Z,72.30
2023-01-08T15:07:32.568Z,72.80
2023-01-08T15:10:59.776Z,73.20
2023-01-08T15:14:25.444Z,73.40
2023-01-08T15:17:48.990Z,74.00
2023-01-08T15:21:18.735Z,74.30
2023-01-08T15:24:52.822Z,74.50
2023-01-08T15:28:16.846Z,74.50
2023-01-08T15:31:48.363Z,75.30
2023-01-08T15:35:15.926Z,76.30
2023-01-08T15:38:39.802Z,75.70
2023-01-08T15:42:36.101Z,75.60
2023-01-08T15:45:59.701Z,75.30
2023-01-08T15:49:23.349Z,75.40
2023-01-08T15:52:47.250Z,76.10
2023-01-08T15:56:10.881Z,76.60
2023-01-08T15:59:37.717Z,77.60
2023-01-08T16:03:01.278Z,78.20
2023-01-08T16:06:24.895Z,78.90
2023-01-08T16:09:48.501Z,79.60
2023-01-08T16:13:12.430Z,80.00
2023-01-08T16:16:37.446Z,80.30
2023-01-08T16:20:01.045Z,81.00
2023-01-08T16:23:24.637Z,81.50
2023-01-08T16:26:48.285Z,82.00
2023-01-08T16:30:14.599Z,82.30
2023-01-08T16:33:39.634Z,82.60
2023-01-08T16:37:03.208Z,82.90
2023-01-08T16:40:26.994Z,83.10
2023-01-08T16:43:50.601Z,83.70
2023-01-08T16:47:14.142Z,84.10
2023-01-08T16:50:39.178Z,84.40
2023-01-08T16:54:02.746Z,84.60
2023-01-08T16:57:26.332Z,84.50
2023-01-08T17:00:50.051Z,84.30
2023-01-08T17:04:13.735Z,84.10
2023-01-08T17:07:38.580Z,84.00
2023-01-08T17:11:07.012Z,84.10
2023-01-08T17:14:30.620Z,84.80
2023-01-08T17:17:54.123Z,84.10
2023-01-08T17:21:18.186Z,84.00
2023-01-08T17:24:43.117Z,84.00
2023-01-08T17:28:06.808Z,84.00
2023-01-08T17:31:30.588Z,83.90
2023-01-08T17:34:54.597Z,84.00
2023-01-08T17:38:18.149Z,84.30
2023-01-08T17:42:00.267Z,84.50
2023-01-08T17:45:23.990Z,84.60
2023-01-08T17:48:47.640Z,84.50
2023-01-08T17:52:11.151Z,84.40
2023-01-08T17:55:34.873Z,84.30
2023-01-08T17:58:59.865Z,84.30
2023-01-08T18:02:25.676Z,84.40
2023-01-08T18:05:49.343Z,84.00
2023-01-08T18:09:13.189Z,84.20
2023-01-08T18:12:36.787Z,84.00
2023-01-08T18:16:04.551Z,83.40
2023-01-08T18:19:28.322Z,83.30
2023-01-08T18:22:56.079Z,82.30
2023-01-08T18:26:21.585Z,82.10
2023-01-08T18:29:45.107Z,81.90
2023-01-08T18:33:10.295Z,81.80
2023-01-08T18:36:34.070Z,81.80
2023-01-08T18:39:57.677Z,81.80
2023-01-08T18:43:21.337Z,81.90
2023-01-08T18:46:46.741Z,81.90
2023-01-08T18:50:13.329Z,81.60
2023-01-08T18:53:36.900Z,81.80
2023-01-08T18:57:00.519Z,82.00
2023-01-08T19:00:26.147Z,82.20
2023-01-08T19:03:49.663Z,82.10
2023-01-08T19:07:15.166Z,82.00
2023-01-08T19:10:41.272Z,82.10
2023-01-08T19:14:06.220Z,81.90
2023-01-08T19:17:31.974Z,81.90
2023-01-08T19:20:56.891Z,81.80
2023-01-08T19:24:22.823Z,81.80
2023-01-08T19:27:46.721Z,81.80
2023-01-08T19:31:12.647Z,81.40
2023-01-08T19:34:36.320Z,81.20
2023-01-08T19:37:59.943Z,81.10
2023-01-08T19:41:42.080Z,80.90
2023-01-08T19:45:06.747Z,80.70
2023-01-08T19:48:30.283Z,80.60
2023-01-08T19:51:53.827Z,80.10
2023-01-08T19:55:19.113Z,80.10
2023-01-08T19:58:44.202Z,80.00
2023-01-08T20:02:09.152Z,79.70
2023-01-08T20:05:32.792Z,79.40
2023-01-08T20:08:59.194Z,79.20
2023-01-08T20:12:22.789Z,79.30
2023-01-08T20:15:56.607Z,79.30
2023-01-08T20:19:21.966Z,79.10
2023-01-08T20:22:45.462Z,79.30
2023-01-08T20:26:12.268Z,79.20
2023-01-08T20:29:35.859Z,79.20
2023-01-08T20:33:00.987Z,79.20
2023-01-08T20:36:27.604Z,79.60
2023-01-08T20:39:51.590Z,79.50
2023-01-08T20:43:15.107Z,79.50
2023-01-08T20:46:39.569Z,79.30
2023-01-08T20:50:12.308Z,79.20
2023-01-08T20:53:42.976Z,78.90
2023-01-08T20:57:06.541Z,79.00
2023-01-08T21:00:30.477Z,78.80
2023-01-08T21:03:56.299Z,78.80
2023-01-08T21:07:21.260Z,78.70
2023-01-08T21:10:46.033Z,78.60
2023-01-08T21:14:09.876Z,78.50
2023-01-08T21:17:33.687Z,78.50
2023-01-08T21:20:59.947Z,78.60
2023-01-08T21:24:24.784Z,78.60
2023-01-08T21:27:48.267Z,78.50
2023-01-08T21:31:13.676Z,78.30
2023-01-08T21:34:37.302Z,77.90
2023-01-08T21:38:00.812Z,77.80
2023-01-08T21:41:45.343Z,77.70
2023-01-08T21:45:29.328Z,77.70
2023-01-08T21:48:52.941Z,77.80
2023-01-08T21:52:34.393Z,77.60
2023-01-08T21:55:58.987Z,77.70
2023-01-08T21:59:24.001Z,77.80
2023-01-08T22:02:48.804Z,77.80
2023-01-08T22:06:12.498Z,77.90
2023-01-08T22:09:36.330Z,78.00
2023-01-08T22:12:59.839Z,78.50
2023-01-08T22:16:24.771Z,78.90
2023-01-08T22:19:48.333Z,79.50
2023-01-08T22:23:11.901Z,80.00
2023-01-08T22:26:36.685Z,80.20
2023-01-08T22:30:00.607Z,80.40
2023-01-08T22:33:25.510Z,80.60
2023-01-08T22:36:51.815Z,81.00
2023-01-08T22:40:15.442Z,81.20
2023-01-08T22:43:39.035Z,81.50
2023-01-08T22:47:02.742Z,81.70
2023-01-08T22:50:27.748Z,82.00
2023-01-08T22:53:51.626Z,82.10
2023-01-08T22:57:15.144Z,82.20
2023-01-08T23:00:38.967Z,82.40
2023-01-08T23:04:03.408Z,82.70
2023-01-08T23:07:28.367Z,82.70
2023-01-08T23:10:57.084Z,82.70
2023-01-08T23:14:20.653Z,82.70
2023-01-08T23:17:52.135Z,82.70
2023-01-08T23:21:18.329Z,82.50
2023-01-08T23:24:43.233Z,82.20
2023-01-08T23:28:06.909Z,82.10
2023-01-08T23:31:32.306Z,82.20
2023-01-08T23:34:56.207Z,82.40
2023-01-08T23:38:19.789Z,82.40
2023-01-08T23:41:44.723Z,82.50
2023-01-08T23:45:11.234Z,82.50
2023-01-08T23:48:35.025Z,82.50
2023-01-08T23:51:58.571Z,82.60
2023-01-08T23:55:22.309Z,82.30
2023-01-08T23:58:47.611Z,83.00
